sensor_id;sensor_type;location;lat;lon;timestamp;P1;durP1;ratioP1;P2;durP2;ratioP2
57025;SDS011;43961;52.940;6.834;2022-07-06T00:00:38;9.93;;;4.30;;
57025;SDS011;43961;52.940;6.834;2022-07-06T00:03:03;9.32;;;4.22;;
57025;SDS011;43961;52.940;6.834;2022-07-06T00:05:29;10.52;;;4.55;;
57025;SDS011;43961;52.940;6.834;2022-07-06T00:07:55;9.70;;;4.35;;
57025;SDS011;43961;52.940;6.834;2022-07-06T00:10:20;9.02;;;4.00;;
57025;SDS011;43961;52.940;6.834;2022-07-06T00:12:46;7.05;;;4.22;;
57025;SDS011;43961;52.940;6.834;2022-07-06T00:15:11;4.70;;;3.30;;
57025;SDS011;43961;52.940;6.834;2022-07-06T00:17:37;6.25;;;3.53;;
57025;SDS011;43961;52.940;6.834;2022-07-06T00:20:03;3.63;;;3.05;;
57025;SDS011;43961;52.940;6.834;2022-07-06T00:22:29;10.60;;;3.80;;
57025;SDS011;43961;52.940;6.834;2022-07-06T00:24:54;5.13;;;3.78;;
57025;SDS011;43961;52.940;6.834;2022-07-06T00:27:20;5.75;;;3.70;;
57025;SDS011;43961;52.940;6.834;2022-07-06T00:29:45;8.27;;;3.50;;
57025;SDS011;43961;52.940;6.834;2022-07-06T00:32:11;3.90;;;3.25;;
57025;SDS011;43961;52.940;6.834;2022-07-06T00:34:37;11.55;;;3.60;;
57025;SDS011;43961;52.940;6.834;2022-07-06T00:37:05;9.15;;;3.83;;
57025;SDS011;43961;52.940;6.834;2022-07-06T00:39:31;7.75;;;3.30;;
57025;SDS011;43961;52.940;6.834;2022-07-06T00:41:57;8.02;;;4.32;;
57025;SDS011;43961;52.940;6.834;2022-07-06T00:44:23;13.63;;;4.25;;
57025;SDS011;43961;52.940;6.834;2022-07-06T00:46:49;13.52;;;4.47;;
57025;SDS011;43961;52.940;6.834;2022-07-06T00:49:16;5.70;;;3.63;;
57025;SDS011;43961;52.940;6.834;2022-07-06T00:52:00;6.43;;;4.05;;
57025;SDS011;43961;52.940;6.834;2022-07-06T00:54:26;6.38;;;4.63;;
57025;SDS011;43961;52.940;6.834;2022-07-06T00:56:55;11.55;;;4.35;;
57025;SDS011;43961;52.940;6.834;2022-07-06T00:59:22;16.08;;;3.90;;
57025;SDS011;43961;52.940;6.834;2022-07-06T01:01:49;7.00;;;3.30;;
57025;SDS011;43961;52.940;6.834;2022-07-06T01:04:15;5.97;;;4.03;;
57025;SDS011;43961;52.940;6.834;2022-07-06T01:06:41;10.82;;;4.03;;
57025;SDS011;43961;52.940;6.834;2022-07-06T01:09:06;12.70;;;5.63;;
57025;SDS011;43961;52.940;6.834;2022-07-06T01:11:32;12.32;;;4.45;;
57025;SDS011;43961;52.940;6.834;2022-07-06T01:13:59;9.43;;;3.97;;
57025;SDS011;43961;52.940;6.834;2022-07-06T01:16:26;6.93;;;4.60;;
57025;SDS011;43961;52.940;6.834;2022-07-06T01:18:52;6.35;;;4.03;;
57025;SDS011;43961;52.940;6.834;2022-07-06T01:21:17;9.15;;;4.55;;
57025;SDS011;43961;52.940;6.834;2022-07-06T01:23:44;7.30;;;4.45;;
57025;SDS011;43961;52.940;6.834;2022-07-06T01:26:20;5.28;;;4.32;;
57025;SDS011;43961;52.940;6.834;2022-07-06T01:28:48;9.18;;;4.35;;
57025;SDS011;43961;52.940;6.834;2022-07-06T01:31:16;7.75;;;5.03;;
57025;SDS011;43961;52.940;6.834;2022-07-06T01:33:44;8.90;;;5.28;;
57025;SDS011;43961;52.940;6.834;2022-07-06T01:36:10;9.30;;;4.80;;
57025;SDS011;43961;52.940;6.834;2022-07-06T01:38:49;5.00;;;4.50;;
57025;SDS011;43961;52.940;6.834;2022-07-06T01:41:16;12.18;;;6.15;;
57025;SDS011;43961;52.940;6.834;2022-07-06T01:43:42;9.73;;;5.78;;
57025;SDS011;43961;52.940;6.834;2022-07-06T01:46:08;4.90;;;4.18;;
57025;SDS011;43961;52.940;6.834;2022-07-06T01:48:34;11.10;;;4.38;;
57025;SDS011;43961;52.940;6.834;2022-07-06T01:51:00;10.55;;;4.97;;
57025;SDS011;43961;52.940;6.834;2022-07-06T01:53:26;10.80;;;4.72;;
57025;SDS011;43961;52.940;6.834;2022-07-06T01:55:52;9.68;;;4.80;;
57025;SDS011;43961;52.940;6.834;2022-07-06T01:58:18;8.95;;;5.82;;
57025;SDS011;43961;52.940;6.834;2022-07-06T02:00:43;10.25;;;5.53;;
57025;SDS011;43961;52.940;6.834;2022-07-06T02:03:09;12.23;;;5.03;;
57025;SDS011;43961;52.940;6.834;2022-07-06T02:05:35;10.80;;;5.57;;
57025;SDS011;43961;52.940;6.834;2022-07-06T02:08:00;15.35;;;5.10;;
57025;SDS011;43961;52.940;6.834;2022-07-06T02:10:26;19.52;;;5.13;;
57025;SDS011;43961;52.940;6.834;2022-07-06T02:12:51;14.13;;;4.47;;
57025;SDS011;43961;52.940;6.834;2022-07-06T02:15:17;11.65;;;4.95;;
57025;SDS011;43961;52.940;6.834;2022-07-06T02:17:43;8.43;;;5.15;;
57025;SDS011;43961;52.940;6.834;2022-07-06T02:20:09;9.27;;;5.10;;
57025;SDS011;43961;52.940;6.834;2022-07-06T02:22:35;10.30;;;5.85;;
57025;SDS011;43961;52.940;6.834;2022-07-06T02:25:00;7.03;;;4.45;;
57025;SDS011;43961;52.940;6.834;2022-07-06T02:27:26;8.80;;;5.32;;
57025;SDS011;43961;52.940;6.834;2022-07-06T02:29:52;10.13;;;6.38;;
57025;SDS011;43961;52.940;6.834;2022-07-06T02:32:17;6.70;;;4.90;;
57025;SDS011;43961;52.940;6.834;2022-07-06T02:34:43;7.75;;;4.60;;
57025;SDS011;43961;52.940;6.834;2022-07-06T02:37:09;8.13;;;4.55;;
57025;SDS011;43961;52.940;6.834;2022-07-06T02:39:35;5.32;;;4.40;;
57025;SDS011;43961;52.940;6.834;2022-07-06T02:42:01;9.95;;;4.22;;
57025;SDS011;43961;52.940;6.834;2022-07-06T02:44:26;15.63;;;5.70;;
57025;SDS011;43961;52.940;6.834;2022-07-06T02:46:52;8.07;;;4.43;;
57025;SDS011;43961;52.940;6.834;2022-07-06T02:49:18;6.45;;;4.28;;
57025;SDS011;43961;52.940;6.834;2022-07-06T02:51:43;9.05;;;4.90;;
57025;SDS011;43961;52.940;6.834;2022-07-06T02:54:09;12.98;;;5.13;;
57025;SDS011;43961;52.940;6.834;2022-07-06T02:56:34;6.35;;;3.67;;
57025;SDS011;43961;52.940;6.834;2022-07-06T02:59:00;6.90;;;3.95;;
57025;SDS011;43961;52.940;6.834;2022-07-06T03:01:26;4.40;;;4.00;;
57025;SDS011;43961;52.940;6.834;2022-07-06T03:03:51;15.32;;;4.35;;
57025;SDS011;43961;52.940;6.834;2022-07-06T03:06:17;9.30;;;4.97;;
57025;SDS011;43961;52.940;6.834;2022-07-06T03:08:43;6.47;;;3.65;;
57025;SDS011;43961;52.940;6.834;2022-07-06T03:11:08;5.45;;;3.58;;
57025;SDS011;43961;52.940;6.834;2022-07-06T03:13:34;5.32;;;3.83;;
57025;SDS011;43961;52.940;6.834;2022-07-06T03:16:00;7.07;;;3.72;;
57025;SDS011;43961;52.940;6.834;2022-07-06T03:18:26;8.68;;;4.28;;
57025;SDS011;43961;52.940;6.834;2022-07-06T03:20:52;5.25;;;3.47;;
57025;SDS011;43961;52.940;6.834;2022-07-06T03:23:18;6.25;;;3.33;;
57025;SDS011;43961;52.940;6.834;2022-07-06T03:25:44;4.90;;;3.78;;
57025;SDS011;43961;52.940;6.834;2022-07-06T03:28:10;13.30;;;3.95;;
57025;SDS011;43961;52.940;6.834;2022-07-06T03:30:35;5.95;;;3.83;;
57025;SDS011;43961;52.940;6.834;2022-07-06T03:33:01;5.57;;;4.10;;
57025;SDS011;43961;52.940;6.834;2022-07-06T03:35:27;6.28;;;3.50;;
57025;SDS011;43961;52.940;6.834;2022-07-06T03:37:52;6.82;;;4.60;;
57025;SDS011;43961;52.940;6.834;2022-07-06T03:40:18;7.75;;;4.25;;
57025;SDS011;43961;52.940;6.834;2022-07-06T03:42:43;10.80;;;4.07;;
57025;SDS011;43961;52.940;6.834;2022-07-06T03:45:09;14.48;;;4.65;;
57025;SDS011;43961;52.940;6.834;2022-07-06T03:47:35;9.40;;;4.10;;
57025;SDS011;43961;52.940;6.834;2022-07-06T03:50:01;5.50;;;3.72;;
57025;SDS011;43961;52.940;6.834;2022-07-06T03:52:26;18.98;;;4.32;;
57025;SDS011;43961;52.940;6.834;2022-07-06T03:54:52;7.00;;;4.57;;
57025;SDS011;43961;52.940;6.834;2022-07-06T03:57:18;6.45;;;3.97;;
57025;SDS011;43961;52.940;6.834;2022-07-06T03:59:43;9.07;;;4.30;;
57025;SDS011;43961;52.940;6.834;2022-07-06T04:02:09;9.15;;;4.28;;
57025;SDS011;43961;52.940;6.834;2022-07-06T04:04:35;8.50;;;4.18;;
57025;SDS011;43961;52.940;6.834;2022-07-06T04:07:00;6.30;;;3.65;;
57025;SDS011;43961;52.940;6.834;2022-07-06T04:09:26;5.90;;;3.50;;
57025;SDS011;43961;52.940;6.834;2022-07-06T04:11:52;7.50;;;3.42;;
57025;SDS011;43961;52.940;6.834;2022-07-06T04:14:17;6.18;;;3.58;;
57025;SDS011;43961;52.940;6.834;2022-07-06T04:16:43;7.00;;;3.65;;
57025;SDS011;43961;52.940;6.834;2022-07-06T04:19:09;9.30;;;4.57;;
57025;SDS011;43961;52.940;6.834;2022-07-06T04:21:34;5.10;;;3.30;;
57025;SDS011;43961;52.940;6.834;2022-07-06T04:24:00;5.93;;;3.33;;
57025;SDS011;43961;52.940;6.834;2022-07-06T04:26:26;6.45;;;3.53;;
57025;SDS011;43961;52.940;6.834;2022-07-06T04:28:52;7.20;;;3.55;;
57025;SDS011;43961;52.940;6.834;2022-07-06T04:31:17;3.53;;;2.70;;
57025;SDS011;43961;52.940;6.834;2022-07-06T04:33:43;11.30;;;4.03;;
57025;SDS011;43961;52.940;6.834;2022-07-06T04:36:09;7.22;;;3.58;;
57025;SDS011;43961;52.940;6.834;2022-07-06T04:38:35;12.93;;;3.92;;
57025;SDS011;43961;52.940;6.834;2022-07-06T04:41:01;9.57;;;3.85;;
57025;SDS011;43961;52.940;6.834;2022-07-06T04:43:27;6.20;;;3.40;;
57025;SDS011;43961;52.940;6.834;2022-07-06T04:45:53;9.05;;;3.25;;
57025;SDS011;43961;52.940;6.834;2022-07-06T04:48:19;9.25;;;3.50;;
57025;SDS011;43961;52.940;6.834;2022-07-06T04:50:44;12.88;;;4.03;;
57025;SDS011;43961;52.940;6.834;2022-07-06T04:53:10;5.55;;;2.97;;
57025;SDS011;43961;52.940;6.834;2022-07-06T04:55:36;6.72;;;4.25;;
57025;SDS011;43961;52.940;6.834;2022-07-06T04:58:05;5.15;;;3.17;;
57025;SDS011;43961;52.940;6.834;2022-07-06T05:00:30;7.03;;;4.15;;
57025;SDS011;43961;52.940;6.834;2022-07-06T05:02:56;9.55;;;4.15;;
57025;SDS011;43961;52.940;6.834;2022-07-06T05:05:22;9.05;;;3.42;;
57025;SDS011;43961;52.940;6.834;2022-07-06T05:07:48;6.93;;;4.00;;
57025;SDS011;43961;52.940;6.834;2022-07-06T05:10:13;9.55;;;3.22;;
57025;SDS011;43961;52.940;6.834;2022-07-06T05:12:39;7.82;;;2.92;;
57025;SDS011;43961;52.940;6.834;2022-07-06T05:15:05;10.02;;;3.50;;
57025;SDS011;43961;52.940;6.834;2022-07-06T05:17:31;18.42;;;3.63;;
57025;SDS011;43961;52.940;6.834;2022-07-06T05:19:57;6.40;;;2.72;;
57025;SDS011;43961;52.940;6.834;2022-07-06T05:22:23;12.77;;;3.25;;
57025;SDS011;43961;52.940;6.834;2022-07-06T05:24:49;6.32;;;2.60;;
57025;SDS011;43961;52.940;6.834;2022-07-06T05:27:15;10.98;;;3.22;;
57025;SDS011;43961;52.940;6.834;2022-07-06T05:29:41;5.75;;;2.60;;
57025;SDS011;43961;52.940;6.834;2022-07-06T05:32:07;5.53;;;2.88;;
57025;SDS011;43961;52.940;6.834;2022-07-06T05:34:32;12.50;;;3.05;;
57025;SDS011;43961;52.940;6.834;2022-07-06T05:36:58;7.75;;;3.03;;
57025;SDS011;43961;52.940;6.834;2022-07-06T05:39:23;7.22;;;3.17;;
57025;SDS011;43961;52.940;6.834;2022-07-06T05:41:49;8.85;;;2.78;;
57025;SDS011;43961;52.940;6.834;2022-07-06T05:44:15;4.50;;;2.55;;
57025;SDS011;43961;52.940;6.834;2022-07-06T05:46:40;17.35;;;3.40;;
57025;SDS011;43961;52.940;6.834;2022-07-06T05:49:06;6.35;;;2.63;;
57025;SDS011;43961;52.940;6.834;2022-07-06T05:51:51;7.13;;;2.40;;
57025;SDS011;43961;52.940;6.834;2022-07-06T05:54:16;8.93;;;2.85;;
57025;SDS011;43961;52.940;6.834;2022-07-06T05:56:42;8.57;;;2.58;;
57025;SDS011;43961;52.940;6.834;2022-07-06T05:59:08;6.35;;;3.17;;
57025;SDS011;43961;52.940;6.834;2022-07-06T06:01:33;5.60;;;2.83;;
57025;SDS011;43961;52.940;6.834;2022-07-06T06:03:59;11.48;;;2.88;;
57025;SDS011;43961;52.940;6.834;2022-07-06T06:06:25;6.07;;;2.55;;
57025;SDS011;43961;52.940;6.834;2022-07-06T06:08:51;9.73;;;3.05;;
57025;SDS011;43961;52.940;6.834;2022-07-06T06:11:17;9.05;;;2.90;;
57025;SDS011;43961;52.940;6.834;2022-07-06T06:13:43;4.53;;;2.53;;
57025;SDS011;43961;52.940;6.834;2022-07-06T06:16:09;6.00;;;2.65;;
57025;SDS011;43961;52.940;6.834;2022-07-06T06:18:35;21.83;;;3.78;;
57025;SDS011;43961;52.940;6.834;2022-07-06T06:21:01;7.30;;;3.10;;
57025;SDS011;43961;52.940;6.834;2022-07-06T06:23:26;4.93;;;2.88;;
57025;SDS011;43961;52.940;6.834;2022-07-06T06:25:52;8.95;;;3.00;;
57025;SDS011;43961;52.940;6.834;2022-07-06T06:28:18;7.13;;;3.15;;
57025;SDS011;43961;52.940;6.834;2022-07-06T06:30:44;6.57;;;2.35;;
57025;SDS011;43961;52.940;6.834;2022-07-06T06:33:13;15.93;;;3.45;;
57025;SDS011;43961;52.940;6.834;2022-07-06T06:35:42;9.25;;;2.78;;
57025;SDS011;43961;52.940;6.834;2022-07-06T06:38:09;12.57;;;2.30;;
57025;SDS011;43961;52.940;6.834;2022-07-06T06:40:35;2.72;;;1.77;;
57025;SDS011;43961;52.940;6.834;2022-07-06T06:43:01;5.43;;;2.05;;
57025;SDS011;43961;52.940;6.834;2022-07-06T06:45:28;3.58;;;1.70;;
57025;SDS011;43961;52.940;6.834;2022-07-06T06:47:53;4.82;;;1.95;;
57025;SDS011;43961;52.940;6.834;2022-07-06T06:50:19;7.00;;;2.13;;
57025;SDS011;43961;52.940;6.834;2022-07-06T06:52:46;3.45;;;2.15;;
57025;SDS011;43961;52.940;6.834;2022-07-06T06:55:12;5.82;;;2.00;;
57025;SDS011;43961;52.940;6.834;2022-07-06T06:57:38;3.60;;;2.00;;
57025;SDS011;43961;52.940;6.834;2022-07-06T07:00:04;3.95;;;1.63;;
57025;SDS011;43961;52.940;6.834;2022-07-06T07:02:30;2.58;;;1.48;;
57025;SDS011;43961;52.940;6.834;2022-07-06T07:04:56;3.35;;;1.42;;
57025;SDS011;43961;52.940;6.834;2022-07-06T07:07:22;7.07;;;2.30;;
57025;SDS011;43961;52.940;6.834;2022-07-06T07:09:47;2.88;;;1.52;;
57025;SDS011;43961;52.940;6.834;2022-07-06T07:12:13;5.38;;;1.98;;
57025;SDS011;43961;52.940;6.834;2022-07-06T07:14:40;7.35;;;2.10;;
57025;SDS011;43961;52.940;6.834;2022-07-06T07:17:06;8.32;;;2.47;;
57025;SDS011;43961;52.940;6.834;2022-07-06T07:19:31;4.65;;;1.95;;
57025;SDS011;43961;52.940;6.834;2022-07-06T07:21:57;6.18;;;2.00;;
57025;SDS011;43961;52.940;6.834;2022-07-06T07:24:23;8.88;;;1.70;;
57025;SDS011;43961;52.940;6.834;2022-07-06T07:26:49;13.60;;;2.22;;
57025;SDS011;43961;52.940;6.834;2022-07-06T07:29:14;16.30;;;2.00;;
57025;SDS011;43961;52.940;6.834;2022-07-06T07:31:40;7.82;;;1.80;;
57025;SDS011;43961;52.940;6.834;2022-07-06T07:34:05;6.28;;;2.00;;
57025;SDS011;43961;52.940;6.834;2022-07-06T07:36:31;5.32;;;2.03;;
57025;SDS011;43961;52.940;6.834;2022-07-06T07:38:56;3.33;;;1.48;;
57025;SDS011;43961;52.940;6.834;2022-07-06T07:41:22;5.68;;;1.33;;
57025;SDS011;43961;52.940;6.834;2022-07-06T07:43:48;5.10;;;1.70;;
57025;SDS011;43961;52.940;6.834;2022-07-06T07:46:13;5.13;;;1.60;;
57025;SDS011;43961;52.940;6.834;2022-07-06T07:48:39;4.32;;;1.90;;
57025;SDS011;43961;52.940;6.834;2022-07-06T07:51:05;13.98;;;1.80;;
57025;SDS011;43961;52.940;6.834;2022-07-06T07:53:30;6.57;;;1.50;;
57025;SDS011;43961;52.940;6.834;2022-07-06T07:55:56;5.28;;;1.77;;
57025;SDS011;43961;52.940;6.834;2022-07-06T07:58:22;11.45;;;1.65;;
57025;SDS011;43961;52.940;6.834;2022-07-06T08:00:47;5.75;;;2.25;;
57025;SDS011;43961;52.940;6.834;2022-07-06T08:03:13;4.10;;;1.63;;
57025;SDS011;43961;52.940;6.834;2022-07-06T08:05:40;11.27;;;2.17;;
57025;SDS011;43961;52.940;6.834;2022-07-06T08:08:05;8.55;;;2.00;;
57025;SDS011;43961;52.940;6.834;2022-07-06T08:10:31;11.82;;;2.05;;
57025;SDS011;43961;52.940;6.834;2022-07-06T08:12:57;5.82;;;1.42;;
57025;SDS011;43961;52.940;6.834;2022-07-06T08:15:22;9.77;;;2.17;;
57025;SDS011;43961;52.940;6.834;2022-07-06T08:17:48;2.47;;;1.42;;
57025;SDS011;43961;52.940;6.834;2022-07-06T08:20:14;7.50;;;1.75;;
57025;SDS011;43961;52.940;6.834;2022-07-06T08:22:41;7.93;;;2.13;;
57025;SDS011;43961;52.940;6.834;2022-07-06T08:25:08;5.22;;;1.63;;
57025;SDS011;43961;52.940;6.834;2022-07-06T08:27:34;7.13;;;1.42;;
57025;SDS011;43961;52.940;6.834;2022-07-06T08:30:01;7.65;;;1.23;;
57025;SDS011;43961;52.940;6.834;2022-07-06T08:32:30;5.40;;;1.52;;
57025;SDS011;43961;52.940;6.834;2022-07-06T08:34:56;9.70;;;2.60;;
57025;SDS011;43961;52.940;6.834;2022-07-06T08:37:23;7.00;;;1.35;;
57025;SDS011;43961;52.940;6.834;2022-07-06T08:39:48;6.97;;;2.13;;
57025;SDS011;43961;52.940;6.834;2022-07-06T08:42:15;3.33;;;1.92;;
57025;SDS011;43961;52.940;6.834;2022-07-06T08:44:42;6.43;;;1.77;;
57025;SDS011;43961;52.940;6.834;2022-07-06T08:47:08;6.13;;;1.55;;
57025;SDS011;43961;52.940;6.834;2022-07-06T08:49:35;5.75;;;1.80;;
57025;SDS011;43961;52.940;6.834;2022-07-06T08:52:02;9.23;;;2.08;;
57025;SDS011;43961;52.940;6.834;2022-07-06T08:54:29;33.05;;;4.13;;
57025;SDS011;43961;52.940;6.834;2022-07-06T08:56:58;11.18;;;1.80;;
57025;SDS011;43961;52.940;6.834;2022-07-06T08:59:27;3.50;;;1.30;;
57025;SDS011;43961;52.940;6.834;2022-07-06T09:01:54;2.97;;;1.67;;
57025;SDS011;43961;52.940;6.834;2022-07-06T09:04:21;10.07;;;2.00;;
57025;SDS011;43961;52.940;6.834;2022-07-06T09:06:47;7.13;;;1.65;;
57025;SDS011;43961;52.940;6.834;2022-07-06T09:09:19;9.23;;;2.58;;
57025;SDS011;43961;52.940;6.834;2022-07-06T09:11:46;3.92;;;1.60;;
57025;SDS011;43961;52.940;6.834;2022-07-06T09:14:12;4.30;;;1.25;;
57025;SDS011;43961;52.940;6.834;2022-07-06T09:16:40;3.65;;;1.30;;
57025;SDS011;43961;52.940;6.834;2022-07-06T09:21:32;4.65;;;1.25;;
57025;SDS011;43961;52.940;6.834;2022-07-06T09:24:01;2.72;;;0.85;;
57025;SDS011;43961;52.940;6.834;2022-07-06T09:26:30;7.32;;;1.25;;
57025;SDS011;43961;52.940;6.834;2022-07-06T09:28:56;3.17;;;1.60;;
57025;SDS011;43961;52.940;6.834;2022-07-06T09:31:24;5.75;;;1.45;;
57025;SDS011;43961;52.940;6.834;2022-07-06T09:33:57;1.48;;;1.17;;
57025;SDS011;43961;52.940;6.834;2022-07-06T09:36:36;2.85;;;1.00;;
57025;SDS011;43961;52.940;6.834;2022-07-06T09:41:48;2.05;;;1.10;;
57025;SDS011;43961;52.940;6.834;2022-07-06T09:44:25;1.13;;;0.90;;
57025;SDS011;43961;52.940;6.834;2022-07-06T09:46:56;5.85;;;1.30;;
57025;SDS011;43961;52.940;6.834;2022-07-06T09:49:23;3.50;;;1.67;;
57025;SDS011;43961;52.940;6.834;2022-07-06T09:51:51;3.72;;;1.30;;
57025;SDS011;43961;52.940;6.834;2022-07-06T09:54:19;4.88;;;1.13;;
57025;SDS011;43961;52.940;6.834;2022-07-06T09:56:45;3.55;;;1.20;;
57025;SDS011;43961;52.940;6.834;2022-07-06T09:59:19;3.35;;;1.40;;
57025;SDS011;43961;52.940;6.834;2022-07-06T10:01:55;3.38;;;0.88;;
57025;SDS011;43961;52.940;6.834;2022-07-06T10:04:23;1.83;;;1.02;;
57025;SDS011;43961;52.940;6.834;2022-07-06T10:06:50;4.63;;;1.63;;
57025;SDS011;43961;52.940;6.834;2022-07-06T10:09:18;13.30;;;2.15;;
57025;SDS011;43961;52.940;6.834;2022-07-06T10:11:47;3.45;;;1.13;;
57025;SDS011;43961;52.940;6.834;2022-07-06T10:14:17;5.05;;;1.25;;
57025;SDS011;43961;52.940;6.834;2022-07-06T10:16:50;15.15;;;1.98;;
57025;SDS011;43961;52.940;6.834;2022-07-06T10:19:17;14.30;;;2.83;;
57025;SDS011;43961;52.940;6.834;2022-07-06T10:21:45;22.63;;;1.92;;
57025;SDS011;43961;52.940;6.834;2022-07-06T10:24:11;7.93;;;1.98;;
57025;SDS011;43961;52.940;6.834;2022-07-06T10:26:37;6.75;;;2.05;;
57025;SDS011;43961;52.940;6.834;2022-07-06T10:29:04;2.28;;;1.25;;
57025;SDS011;43961;52.940;6.834;2022-07-06T10:31:31;5.17;;;1.50;;
57025;SDS011;43961;52.940;6.834;2022-07-06T10:33:59;6.63;;;1.33;;
57025;SDS011;43961;52.940;6.834;2022-07-06T10:36:26;2.08;;;1.30;;
57025;SDS011;43961;52.940;6.834;2022-07-06T10:38:53;3.13;;;1.52;;
57025;SDS011;43961;52.940;6.834;2022-07-06T10:41:29;9.13;;;1.90;;
57025;SDS011;43961;52.940;6.834;2022-07-06T10:43:56;4.05;;;1.38;;
57025;SDS011;43961;52.940;6.834;2022-07-06T10:46:23;6.55;;;1.58;;
57025;SDS011;43961;52.940;6.834;2022-07-06T10:48:53;2.22;;;0.75;;
57025;SDS011;43961;52.940;6.834;2022-07-06T10:51:25;8.45;;;1.23;;
57025;SDS011;43961;52.940;6.834;2022-07-06T10:54:00;1.90;;;0.95;;
57025;SDS011;43961;52.940;6.834;2022-07-06T10:56:36;0.73;;;0.73;;
57025;SDS011;43961;52.940;6.834;2022-07-06T11:04:40;4.45;;;1.60;;
57025;SDS011;43961;52.940;6.834;2022-07-06T11:07:12;4.30;;;1.20;;
57025;SDS011;43961;52.940;6.834;2022-07-06T11:10:03;3.38;;;1.80;;
57025;SDS011;43961;52.940;6.834;2022-07-06T11:12:28;5.07;;;1.33;;
57025;SDS011;43961;52.940;6.834;2022-07-06T11:14:53;2.08;;;1.23;;
57025;SDS011;43961;52.940;6.834;2022-07-06T11:17:20;6.47;;;1.88;;
57025;SDS011;43961;52.940;6.834;2022-07-06T11:20:28;3.22;;;1.60;;
57025;SDS011;43961;52.940;6.834;2022-07-06T11:22:36;2.78;;;1.27;;
57025;SDS011;43961;52.940;6.834;2022-07-06T11:25:03;2.65;;;0.90;;
57025;SDS011;43961;52.940;6.834;2022-07-06T11:27:30;7.18;;;1.80;;
57025;SDS011;43961;52.940;6.834;2022-07-06T11:29:56;4.45;;;1.52;;
57025;SDS011;43961;52.940;6.834;2022-07-06T11:32:25;6.68;;;1.13;;
57025;SDS011;43961;52.940;6.834;2022-07-06T11:34:52;9.77;;;2.05;;
57025;SDS011;43961;52.940;6.834;2022-07-06T11:37:17;6.03;;;1.35;;
57025;SDS011;43961;52.940;6.834;2022-07-06T11:39:44;3.63;;;1.85;;
57025;SDS011;43961;52.940;6.834;2022-07-06T11:42:15;14.50;;;2.65;;
57025;SDS011;43961;52.940;6.834;2022-07-06T11:44:42;8.27;;;1.55;;
57025;SDS011;43961;52.940;6.834;2022-07-06T11:47:09;2.47;;;1.35;;
57025;SDS011;43961;52.940;6.834;2022-07-06T11:49:37;6.55;;;1.55;;
57025;SDS011;43961;52.940;6.834;2022-07-06T11:54:37;6.60;;;1.42;;
57025;SDS011;43961;52.940;6.834;2022-07-06T11:57:03;3.45;;;1.15;;
57025;SDS011;43961;52.940;6.834;2022-07-06T11:59:36;5.00;;;1.20;;
57025;SDS011;43961;52.940;6.834;2022-07-06T12:02:11;2.88;;;1.23;;
57025;SDS011;43961;52.940;6.834;2022-07-06T12:04:43;3.72;;;1.88;;
57025;SDS011;43961;52.940;6.834;2022-07-06T12:07:13;4.85;;;1.48;;
57025;SDS011;43961;52.940;6.834;2022-07-06T12:09:41;5.32;;;1.63;;
57025;SDS011;43961;52.940;6.834;2022-07-06T12:12:08;5.30;;;1.75;;
57025;SDS011;43961;52.940;6.834;2022-07-06T12:14:36;4.40;;;1.38;;
57025;SDS011;43961;52.940;6.834;2022-07-06T12:17:03;2.50;;;1.35;;
57025;SDS011;43961;52.940;6.834;2022-07-06T12:19:30;3.42;;;1.52;;
57025;SDS011;43961;52.940;6.834;2022-07-06T12:21:57;5.15;;;1.17;;
57025;SDS011;43961;52.940;6.834;2022-07-06T12:24:24;9.90;;;1.75;;
57025;SDS011;43961;52.940;6.834;2022-07-06T12:26:52;10.60;;;1.35;;
57025;SDS011;43961;52.940;6.834;2022-07-06T12:29:19;3.08;;;1.88;;
57025;SDS011;43961;52.940;6.834;2022-07-06T12:34:20;5.40;;;1.35;;
57025;SDS011;43961;52.940;6.834;2022-07-06T12:36:57;3.53;;;1.77;;
57025;SDS011;43961;52.940;6.834;2022-07-06T12:41:55;3.92;;;1.23;;
57025;SDS011;43961;52.940;6.834;2022-07-06T12:44:28;5.68;;;1.50;;
57025;SDS011;43961;52.940;6.834;2022-07-06T12:47:04;6.63;;;1.33;;
57025;SDS011;43961;52.940;6.834;2022-07-06T12:49:31;2.67;;;1.27;;
57025;SDS011;43961;52.940;6.834;2022-07-06T12:52:01;1.67;;;1.43;;
57025;SDS011;43961;52.940;6.834;2022-07-06T12:54:34;3.20;;;0.98;;
57025;SDS011;43961;52.940;6.834;2022-07-06T12:57:10;1.92;;;0.95;;
57025;SDS011;43961;52.940;6.834;2022-07-06T12:59:39;4.68;;;1.48;;
57025;SDS011;43961;52.940;6.834;2022-07-06T13:02:19;3.58;;;1.73;;
57025;SDS011;43961;52.940;6.834;2022-07-06T13:04:59;4.78;;;2.13;;
57025;SDS011;43961;52.940;6.834;2022-07-06T13:07:33;7.70;;;1.92;;
57025;SDS011;43961;52.940;6.834;2022-07-06T13:10:05;11.98;;;2.30;;
57025;SDS011;43961;52.940;6.834;2022-07-06T13:12:32;3.92;;;1.38;;
57025;SDS011;43961;52.940;6.834;2022-07-06T13:14:59;5.72;;;2.58;;
57025;SDS011;43961;52.940;6.834;2022-07-06T13:17:25;36.15;;;3.30;;
57025;SDS011;43961;52.940;6.834;2022-07-06T13:19:50;11.10;;;2.70;;
57025;SDS011;43961;52.940;6.834;2022-07-06T13:22:16;7.80;;;1.35;;
57025;SDS011;43961;52.940;6.834;2022-07-06T13:24:42;11.45;;;1.40;;
57025;SDS011;43961;52.940;6.834;2022-07-06T13:27:08;3.40;;;1.20;;
57025;SDS011;43961;52.940;6.834;2022-07-06T13:29:34;17.23;;;3.05;;
57025;SDS011;43961;52.940;6.834;2022-07-06T13:32:00;2.00;;;1.30;;
57025;SDS011;43961;52.940;6.834;2022-07-06T13:34:27;2.40;;;1.65;;
57025;SDS011;43961;52.940;6.834;2022-07-06T13:36:53;3.78;;;1.40;;
57025;SDS011;43961;52.940;6.834;2022-07-06T13:39:19;2.65;;;1.63;;
57025;SDS011;43961;52.940;6.834;2022-07-06T13:41:44;2.13;;;1.50;;
57025;SDS011;43961;52.940;6.834;2022-07-06T13:44:10;6.43;;;1.40;;
57025;SDS011;43961;52.940;6.834;2022-07-06T13:46:38;2.47;;;1.15;;
57025;SDS011;43961;52.940;6.834;2022-07-06T13:49:04;3.60;;;1.90;;
57025;SDS011;43961;52.940;6.834;2022-07-06T13:51:30;2.28;;;1.92;;
57025;SDS011;43961;52.940;6.834;2022-07-06T13:54:00;6.77;;;1.93;;
57025;SDS011;43961;52.940;6.834;2022-07-06T13:56:26;2.42;;;1.83;;
57025;SDS011;43961;52.940;6.834;2022-07-06T13:58:52;2.45;;;1.55;;
57025;SDS011;43961;52.940;6.834;2022-07-06T14:01:18;4.72;;;2.08;;
57025;SDS011;43961;52.940;6.834;2022-07-06T14:03:44;1.50;;;1.40;;
57025;SDS011;43961;52.940;6.834;2022-07-06T14:06:10;5.10;;;2.03;;
57025;SDS011;43961;52.940;6.834;2022-07-06T14:08:38;4.10;;;1.90;;
57025;SDS011;43961;52.940;6.834;2022-07-06T14:11:05;3.55;;;1.38;;
57025;SDS011;43961;52.940;6.834;2022-07-06T14:13:32;2.53;;;1.23;;
57025;SDS011;43961;52.940;6.834;2022-07-06T14:15:59;6.93;;;1.97;;
57025;SDS011;43961;52.940;6.834;2022-07-06T14:18:25;4.85;;;2.15;;
57025;SDS011;43961;52.940;6.834;2022-07-06T14:20:51;5.22;;;2.50;;
57025;SDS011;43961;52.940;6.834;2022-07-06T14:23:18;1.98;;;1.48;;
57025;SDS011;43961;52.940;6.834;2022-07-06T14:25:44;3.33;;;2.03;;
57025;SDS011;43961;52.940;6.834;2022-07-06T14:28:10;5.00;;;1.75;;
57025;SDS011;43961;52.940;6.834;2022-07-06T14:30:40;1.92;;;1.65;;
57025;SDS011;43961;52.940;6.834;2022-07-06T14:33:07;11.15;;;1.80;;
57025;SDS011;43961;52.940;6.834;2022-07-06T14:35:44;1.67;;;1.58;;
57025;SDS011;43961;52.940;6.834;2022-07-06T14:38:16;6.75;;;1.70;;
57025;SDS011;43961;52.940;6.834;2022-07-06T14:40:43;7.33;;;1.77;;
57025;SDS011;43961;52.940;6.834;2022-07-06T14:43:09;9.15;;;2.08;;
57025;SDS011;43961;52.940;6.834;2022-07-06T14:45:35;2.78;;;1.70;;
57025;SDS011;43961;52.940;6.834;2022-07-06T14:48:03;4.38;;;2.00;;
57025;SDS011;43961;52.940;6.834;2022-07-06T14:50:30;4.95;;;1.67;;
57025;SDS011;43961;52.940;6.834;2022-07-06T14:52:56;2.60;;;1.83;;
57025;SDS011;43961;52.940;6.834;2022-07-06T14:55:22;7.43;;;2.10;;
57025;SDS011;43961;52.940;6.834;2022-07-06T14:57:48;3.53;;;1.65;;
57025;SDS011;43961;52.940;6.834;2022-07-06T15:00:14;4.93;;;2.13;;
57025;SDS011;43961;52.940;6.834;2022-07-06T15:02:41;5.28;;;2.47;;